Time;durP1;ratioP1;P1;durP2;ratioP2;P2;SDS_P1;SDS_P2;PMS_P1;PMS_P2;Temp;Humidity;BMP_temperature;BMP_pressure;BME280_temperature;BME280_humidity;BME280_pressure;Samples;Min_cycle;Max_cycle;Signal;HPM_P1;HPM_P2
2021/07/10 00:01:06;;;;;;;10.40;3.08;;;26.90;60.90;;;;;;5076233;28;20020;-70
2021/07/10 00:03:32;;;;;;;9.50;3.25;;;26.90;60.90;;;;;;5076342;28;20024;-69
2021/07/10 00:05:57;;;;;;;13.30;3.35;;;26.90;61.00;;;;;;5075943;28;20477;-69
2021/07/10 00:08:23;;;;;;;11.93;2.85;;;26.90;61.00;;;;;;5064440;28;20033;-71
2021/07/10 00:10:51;;;;;;;10.80;3.10;;;26.90;61.00;;;;;;5054688;28;20037;-70
2021/07/10 00:13:17;;;;;;;10.48;3.10;;;27.00;61.20;;;;;;5055837;28;20025;-69
2021/07/10 00:15:43;;;;;;;12.23;3.33;;;26.90;60.50;;;;;;5055961;28;20027;-69
2021/07/10 00:18:08;;;;;;;11.30;3.00;;;26.90;60.50;;;;;;5059160;28;20064;-69
2021/07/10 00:20:34;;;;;;;11.48;3.00;;;26.90;60.40;;;;;;5055839;28;20040;-70
2021/07/10 00:23:01;;;;;;;11.02;2.88;;;26.90;60.60;;;;;;5055948;28;20060;-69
2021/07/10 00:25:27;;;;;;;12.18;3.08;;;26.80;60.90;;;;;;5055814;28;20062;-68
2021/07/10 00:27:53;;;;;;;13.80;3.15;;;26.80;60.80;;;;;;5055681;28;20025;-70
2021/07/10 00:30:20;;;;;;;10.68;2.85;;;26.80;61.00;;;;;;5071025;28;20445;-70
2021/07/10 00:32:49;;;;;;;10.57;3.05;;;26.80;61.10;;;;;;5075458;28;20385;-70
2021/07/10 00:35:16;;;;;;;13.90;3.13;;;26.80;61.00;;;;;;5058452;28;20035;-69
2021/07/10 00:37:44;;;;;;;10.07;2.80;;;26.70;61.10;;;;;;5055456;28;20096;-69
2021/07/10 00:40:11;;;;;;;10.10;2.78;;;26.70;61.60;;;;;;5066308;28;20469;-69
2021/07/10 00:42:38;;;;;;;11.35;3.15;;;26.70;61.60;;;;;;5075529;28;20025;-70
2021/07/10 00:45:07;;;;;;;9.75;2.90;;;26.70;61.50;;;;;;5075510;28;20039;-69
2021/07/10 00:47:33;;;;;;;13.93;3.05;;;26.70;61.80;;;;;;5059723;28;20028;-70
2021/07/10 00:49:59;;;;;;;9.07;3.35;;;26.70;61.80;;;;;;5069157;28;20350;-71
2021/07/10 00:52:26;;;;;;;8.25;2.35;;;26.70;61.90;;;;;;5075233;28;20090;-73
2021/07/10 00:54:52;;;;;;;8.93;2.90;;;26.70;61.70;;;;;;5074045;28;20024;-73
2021/07/10 00:57:19;;;;;;;13.60;3.05;;;26.70;62.30;;;;;;5075373;28;20428;-73
2021/07/10 00:59:46;;;;;;;12.68;2.75;;;26.70;61.70;;;;;;5066158;28;20024;-72
2021/07/10 01:02:11;;;;;;;13.80;3.10;;;26.70;61.60;;;;;;5055032;28;20031;-73
2021/07/10 01:04:38;;;;;;;7.50;2.55;;;26.70;62.00;;;;;;5053676;28;20116;-71
2021/07/10 01:07:04;;;;;;;13.30;3.22;;;26.70;62.10;;;;;;5054831;28;20024;-73
2021/07/10 01:09:31;;;;;;;14.15;3.20;;;26.70;62.50;;;;;;5057963;28;20048;-71
2021/07/10 01:11:57;;;;;;;12.85;3.05;;;26.60;62.70;;;;;;5074945;28;20483;-71
2021/07/10 01:14:23;;;;;;;10.90;2.60;;;26.60;62.20;;;;;;5070265;28;20112;-71
2021/07/10 01:16:48;;;;;;;10.68;2.75;;;26.70;62.30;;;;;;5054729;28;20032;-70
2021/07/10 01:19:26;;;;;;;11.85;3.22;;;26.70;62.40;;;;;;5054721;28;20037;-69
2021/07/10 01:21:52;;;;;;;8.85;3.22;;;26.70;63.00;;;;;;5054659;28;20021;-70
2021/07/10 01:24:18;;;;;;;13.88;3.00;;;26.70;62.40;;;;;;5053468;28;20159;-70
2021/07/10 01:26:44;;;;;;;9.68;3.15;;;26.60;62.40;;;;;;5054708;28;20103;-69
2021/07/10 01:29:09;;;;;;;13.35;2.80;;;26.60;62.20;;;;;;5054629;28;20025;-68
2021/07/10 01:31:38;;;;;;;13.65;3.13;;;26.70;62.20;;;;;;5067978;28;20417;-70
2021/07/10 01:34:03;;;;;;;10.77;3.15;;;26.70;61.80;;;;;;5074300;28;20070;-69
2021/07/10 01:36:30;;;;;;;9.43;2.83;;;26.70;62.00;;;;;;5074388;28;20036;-70
2021/07/10 01:38:55;;;;;;;11.60;3.10;;;26.60;62.10;;;;;;5074180;28;20032;-69
2021/07/10 01:41:21;;;;;;;12.30;3.03;;;26.60;61.90;;;;;;5063668;28;20116;-69
2021/07/10 01:43:47;;;;;;;13.85;3.30;;;26.70;61.90;;;;;;5054425;28;20381;-70
2021/07/10 01:46:18;;;;;;;11.25;2.75;;;26.70;62.20;;;;;;5054427;28;20021;-70
2021/07/10 01:48:44;;;;;;;13.43;3.22;;;26.70;62.30;;;;;;5052979;28;20028;-70
2021/07/10 01:51:10;;;;;;;9.35;2.63;;;26.70;61.60;;;;;;5060079;28;20061;-70
2021/07/10 01:53:35;;;;;;;12.75;3.08;;;26.70;61.80;;;;;;5074276;28;20024;-70
2021/07/10 01:56:01;;;;;;;11.98;3.05;;;26.60;62.00;;;;;;5073919;28;20025;-70
2021/07/10 01:58:27;;;;;;;10.52;3.13;;;26.50;62.30;;;;;;5073954;28;20040;-69
2021/07/10 02:00:53;;;;;;;10.43;2.80;;;26.50;62.40;;;;;;5073142;28;20453;-70
2021/07/10 02:03:18;;;;;;;10.45;2.72;;;26.40;62.60;;;;;;5054018;28;20093;-72
2021/07/10 02:05:44;;;;;;;13.30;2.92;;;26.40;62.70;;;;;;5053896;28;20056;-71
2021/07/10 02:08:13;;;;;;;12.52;3.10;;;26.40;62.60;;;;;;5053792;28;20025;-71
2021/07/10 02:10:38;;;;;;;8.50;2.65;;;26.40;62.50;;;;;;5053439;28;20482;-72
2021/07/10 02:13:10;;;;;;;14.43;3.28;;;26.40;62.50;;;;;;5069377;28;20030;-69
2021/07/10 02:15:36;;;;;;;12.60;2.90;;;26.40;62.60;;;;;;5073526;28;20032;-70
2021/07/10 02:18:03;;;;;;;12.50;2.97;;;26.30;62.60;;;;;;5073629;28;20036;-72
2021/07/10 02:20:29;;;;;;;12.02;2.90;;;26.30;62.80;;;;;;5073546;28;20055;-72
2021/07/10 02:22:57;;;;;;;10.50;2.83;;;26.30;62.80;;;;;;5060078;28;20017;-71
2021/07/10 02:25:23;;;;;;;12.95;3.33;;;26.30;62.50;;;;;;5053677;28;20099;-71
2021/07/10 02:27:50;;;;;;;7.22;2.65;;;26.30;62.70;;;;;;5053382;28;20017;-72
2021/07/10 02:30:24;;;;;;;8.23;2.70;;;26.30;62.70;;;;;;5053206;28;20079;-71
2021/07/10 02:32:50;;;;;;;9.57;2.88;;;26.30;63.50;;;;;;5061114;28;20100;-71
2021/07/10 02:35:18;;;;;;;11.63;3.15;;;26.20;63.10;;;;;;5071816;28;20059;-71
2021/07/10 02:37:45;;;;;;;8.75;2.58;;;26.10;63.40;;;;;;5061756;28;20044;-71
2021/07/10 02:40:12;;;;;;;7.47;2.67;;;26.10;63.40;;;;;;5053648;28;20021;-71
2021/07/10 02:42:38;;;;;;;11.07;2.95;;;26.00;63.70;;;;;;5056724;28;20039;-72
2021/07/10 02:45:06;;;;;;;7.63;2.83;;;25.90;63.40;;;;;;5072056;28;20116;-70
2021/07/10 02:47:32;;;;;;;6.75;2.30;;;25.90;63.90;;;;;;5073043;28;20021;-71
2021/07/10 02:49:58;;;;;;;8.70;2.78;;;25.90;63.70;;;;;;5073118;28;20374;-70
2021/07/10 02:52:24;;;;;;;8.00;3.13;;;25.80;63.80;;;;;;5073293;28;20024;-70
2021/07/10 02:54:49;;;;;;;11.77;3.30;;;25.80;63.60;;;;;;5053855;28;20035;-69
2021/07/10 02:57:18;;;;;;;8.27;3.00;;;25.80;63.60;;;;;;5052994;28;20021;-71
2021/07/10 02:59:44;;;;;;;9.55;3.38;;;25.80;63.80;;;;;;5051827;28;20029;-70
2021/07/10 03:02:11;;;;;;;13.00;3.65;;;25.80;63.50;;;;;;5053071;28;20024;-70
2021/07/10 03:04:37;;;;;;;14.18;3.60;;;25.80;63.20;;;;;;5067217;28;20091;-69
2021/07/10 03:07:05;;;;;;;13.55;3.90;;;25.80;62.70;;;;;;5072884;28;20017;-71
2021/07/10 03:09:31;;;;;;;9.38;3.50;;;25.80;62.40;;;;;;5072304;28;20052;-70
2021/07/10 03:11:57;;;;;;;8.85;3.35;;;25.90;61.90;;;;;;5072302;28;20024;-71
2021/07/10 03:14:25;;;;;;;12.27;3.30;;;25.80;61.80;;;;;;5062188;28;20033;-69
2021/07/10 03:16:50;;;;;;;14.15;3.67;;;25.80;61.70;;;;;;5051933;28;20048;-71
2021/07/10 03:19:16;;;;;;;11.80;3.97;;;25.80;61.80;;;;;;5051952;28;20037;-71
2021/07/10 03:21:42;;;;;;;11.45;3.78;;;25.70;61.90;;;;;;5051899;28;20013;-71
2021/07/10 03:24:08;;;;;;;12.23;3.90;;;25.70;61.90;;;;;;5056470;28;20029;-70
2021/07/10 03:26:34;;;;;;;11.57;3.42;;;25.70;61.50;;;;;;5073424;28;20028;-70
2021/07/10 03:29:00;;;;;;;13.65;3.90;;;25.60;61.80;;;;;;5075330;28;20025;-71
2021/07/10 03:31:25;;;;;;;12.18;3.70;;;25.50;61.60;;;;;;5071671;28;20028;-69
2021/07/10 03:33:51;;;;;;;10.82;4.20;;;25.50;61.90;;;;;;5055201;28;20025;-70
2021/07/10 03:36:17;;;;;;;12.55;3.90;;;25.50;62.00;;;;;;5074732;28;20111;-69
2021/07/10 03:38:44;;;;;;;17.60;4.82;;;25.50;61.90;;;;;;5073996;28;20039;-70
2021/07/10 03:41:17;;;;;;;14.20;4.22;;;25.50;61.30;;;;;;5075325;28;20023;-70
2021/07/10 03:43:43;;;;;;;14.05;4.40;;;25.50;60.90;;;;;;5075425;28;20024;-70
2021/07/10 03:46:09;;;;;;;15.38;3.95;;;25.50;61.10;;;;;;5058721;28;20025;-70
2021/07/10 03:48:37;;;;;;;11.48;4.07;;;25.40;61.30;;;;;;5055155;28;20040;-69
2021/07/10 03:51:04;;;;;;;11.90;4.10;;;25.40;61.10;;;;;;5054934;28;20021;-69
2021/07/10 03:53:30;;;;;;;9.57;4.00;;;25.30;61.10;;;;;;5055084;28;20029;-69
2021/07/10 03:55:56;;;;;;;12.73;4.50;;;25.20;61.30;;;;;;5066329;28;20082;-72
2021/07/10 03:58:22;;;;;;;11.93;5.20;;;25.20;61.60;;;;;;5074633;28;20040;-68
2021/07/10 04:00:48;;;;;;;11.77;5.88;;;25.20;61.70;;;;;;5075240;28;20020;-69
2021/07/10 04:03:14;;;;;;;12.60;5.85;;;25.20;61.60;;;;;;5074856;28;20480;-69
2021/07/10 04:05:39;;;;;;;12.32;6.03;;;25.20;61.80;;;;;;5068545;28;20090;-70
2021/07/10 04:08:05;;;;;;;11.45;6.05;;;25.10;61.80;;;;;;5054656;28;20079;-70
2021/07/10 04:10:31;;;;;;;16.23;6.10;;;25.20;61.80;;;;;;4919541;28;3904830;-70
2021/07/10 04:12:57;;;;;;;13.10;6.47;;;25.20;61.80;;;;;;5054852;28;20036;-70
2021/07/10 04:15:23;;;;;;;12.43;7.10;;;25.20;62.00;;;;;;5056924;28;20053;-70
2021/07/10 04:17:49;;;;;;;12.70;6.18;;;25.20;61.90;;;;;;5074505;28;20512;-69
2021/07/10 04:20:16;;;;;;;14.18;6.32;;;25.20;61.80;;;;;;5075942;28;20391;-70
2021/07/10 04:22:42;;;;;;;14.15;5.07;;;25.20;61.80;;;;;;5075935;28;20474;-70
2021/07/10 04:25:11;;;;;;;10.02;4.50;;;25.20;61.80;;;;;;5072618;28;20111;-69
2021/07/10 04:27:38;;;;;;;9.32;4.82;;;25.20;62.00;;;;;;5055623;28;20036;-69
2021/07/10 04:30:06;;;;;;;13.32;4.88;;;25.10;62.00;;;;;;5054678;28;20017;-70
2021/07/10 04:32:32;;;;;;;10.18;4.43;;;25.20;62.00;;;;;;5055952;28;20135;-70
2021/07/10 04:34:57;;;;;;;12.07;3.67;;;25.20;61.80;;;;;;5070319;28;20142;-70
2021/07/10 04:37:23;;;;;;;8.70;3.55;;;25.20;61.80;;;;;;5056249;28;20033;-70
2021/07/10 04:39:49;;;;;;;8.68;3.38;;;25.30;62.20;;;;;;5055819;28;20029;-70
2021/07/10 04:42:15;;;;;;;10.07;3.47;;;25.20;61.20;;;;;;5059222;28;20016;-70
2021/07/10 04:44:41;;;;;;;10.70;3.67;;;25.20;61.30;;;;;;5075622;28;20032;-70
2021/07/10 04:47:06;;;;;;;10.85;3.72;;;25.10;61.40;;;;;;5062672;28;20132;-71
2021/07/10 04:49:32;;;;;;;7.60;3.50;;;25.20;61.60;;;;;;5055504;28;20036;-70
2021/07/10 04:51:59;;;;;;;7.80;3.47;;;25.10;61.40;;;;;;5055470;28;20082;-71
2021/07/10 04:54:25;;;;;;;11.45;4.00;;;25.20;61.00;;;;;;5055200;28;20021;-70
2021/07/10 04:56:51;;;;;;;9.10;4.18;;;25.30;60.60;;;;;;5056260;28;20029;-70
2021/07/10 04:59:17;;;;;;;13.77;4.10;;;25.40;60.40;;;;;;5055157;28;20068;-69
2021/07/10 05:01:43;;;;;;;11.68;3.55;;;25.50;60.00;;;;;;5055376;28;20017;-72
2021/07/10 05:04:08;;;;;;;9.30;3.60;;;25.50;59.80;;;;;;5055150;28;20024;-69
2021/07/10 05:06:34;;;;;;;13.13;3.85;;;25.60;59.60;;;;;;5064330;28;20537;-70
2021/07/10 05:09:00;;;;;;;9.55;3.90;;;25.50;59.50;;;;;;5074920;28;20055;-72
2021/07/10 05:11:25;;;;;;;11.52;3.72;;;25.50;59.60;;;;;;5075195;28;20381;-73
2021/07/10 05:13:51;;;;;;;10.30;3.58;;;25.60;59.70;;;;;;5075237;28;20222;-71
2021/07/10 05:16:17;;;;;;;7.82;3.13;;;25.60;59.30;;;;;;5070742;28;20363;-73
2021/07/10 05:18:43;;;;;;;10.55;3.72;;;25.70;59.50;;;;;;5054952;28;20041;-73
2021/07/10 05:21:08;;;;;;;8.32;3.20;;;25.90;58.90;;;;;;5054779;28;20031;-73
2021/07/10 05:23:34;;;;;;;12.02;3.40;;;26.00;58.60;;;;;;5054834;28;20035;-71
2021/07/10 05:26:00;;;;;;;10.68;3.40;;;26.20;57.80;;;;;;5054601;28;20025;-73
2021/07/10 05:28:25;;;;;;;10.27;3.15;;;26.50;57.10;;;;;;5072974;28;20021;-73
2021/07/10 05:30:51;;;;;;;10.07;3.40;;;26.90;56.20;;;;;;5074987;28;20055;-72
2021/07/10 05:33:19;;;;;;;12.32;3.05;;;27.20;55.50;;;;;;5074560;28;20054;-73
2021/07/10 05:35:45;;;;;;;10.40;3.60;;;27.60;54.70;;;;;;5056316;28;20035;-73
2021/07/10 05:38:13;;;;;;;11.93;3.40;;;27.80;54.30;;;;;;5068504;28;20032;-73
2021/07/10 05:40:39;;;;;;;11.95;3.40;;;28.00;53.80;;;;;;5072936;28;20382;-72
2021/07/10 05:43:05;;;;;;;7.43;3.22;;;28.10;53.90;;;;;;5074460;28;20567;-74
2021/07/10 05:45:30;;;;;;;10.13;3.58;;;28.50;53.80;;;;;;5074189;28;20024;-73
2021/07/10 05:47:56;;;;;;;11.57;4.28;;;28.90;53.10;;;;;;5063558;28;20175;-72
2021/07/10 05:50:22;;;;;;;10.15;3.80;;;29.30;53.40;;;;;;5053842;28;20077;-72
2021/07/10 05:52:47;;;;;;;9.13;3.22;;;29.60;52.80;;;;;;5053979;28;20489;-72
2021/07/10 05:55:13;;;;;;;10.13;4.00;;;29.80;52.50;;;;;;5053801;28;20043;-70
2021/07/10 05:57:39;;;;;;;10.52;3.83;;;30.00;52.20;;;;;;5058054;28;20028;-69
2021/07/10 06:00:09;;;;;;;23.20;4.00;;;30.20;51.90;;;;;;5073867;28;20385;-69
2021/07/10 06:02:35;;;;;;;12.35;3.70;;;30.50;51.50;;;;;;5066864;28;20017;-70
2021/07/10 06:05:01;;;;;;;13.98;3.78;;;30.80;50.80;;;;;;5053969;28;20041;-70
2021/07/10 06:07:27;;;;;;;12.93;3.33;;;30.90;51.20;;;;;;5052704;28;20031;-70
2021/07/10 06:09:53;;;;;;;10.23;3.20;;;30.90;51.00;;;;;;5073358;28;20559;-70
2021/07/10 06:12:18;;;;;;;15.90;3.60;;;30.90;51.10;;;;;;5072187;28;20024;-71
2021/07/10 06:14:44;;;;;;;9.10;3.50;;;31.00;51.00;;;;;;5073559;28;20033;-70
2021/07/10 06:17:10;;;;;;;12.13;3.90;;;31.20;50.90;;;;;;5073563;28;20024;-69
2021/07/10 06:19:38;;;;;;;12.55;3.47;;;31.30;50.60;;;;;;5057863;28;20052;-72
2021/07/10 06:22:04;;;;;;;14.52;4.15;;;31.50;51.10;;;;;;5053426;28;20014;-71
2021/07/10 06:24:30;;;;;;;16.13;4.13;;;31.60;50.20;;;;;;5052119;28;20170;-70
2021/07/10 06:26:55;;;;;;;42.15;6.10;;;31.60;50.40;;;;;;5072397;28;20025;-69
2021/07/10 06:29:21;;;;;;;26.27;4.60;;;31.60;50.40;;;;;;5062434;28;20117;-69
2021/07/10 06:31:47;;;;;;;21.00;4.38;;;31.50;50.50;;;;;;5053199;28;20029;-73
2021/07/10 06:34:12;;;;;;;11.02;3.10;;;31.70;50.40;;;;;;5053447;28;20072;-71
2021/07/10 06:36:40;;;;;;;9.13;3.13;;;31.90;50.20;;;;;;5052999;28;20025;-71
2021/07/10 06:39:06;;;;;;;15.00;3.20;;;32.10;50.50;;;;;;5058787;28;20037;-70
2021/07/10 06:41:32;;;;;;;13.35;3.08;;;32.20;50.10;;;;;;5073374;28;20117;-72
2021/07/10 06:43:58;;;;;;;12.65;3.45;;;32.40;49.70;;;;;;5073222;28;20122;-72
2021/07/10 06:46:24;;;;;;;56.08;7.28;;;32.60;49.50;;;;;;5066312;28;20024;-79
2021/07/10 06:48:50;;;;;;;9.52;3.03;;;32.70;49.90;;;;;;5052224;28;20098;-73
2021/07/10 06:51:16;;;;;;;9.32;3.13;;;32.70;49.30;;;;;;5073031;28;20074;-70
2021/07/10 06:53:43;;;;;;;9.98;3.20;;;32.80;49.30;;;;;;5072612;28;20027;-70
2021/07/10 06:56:10;;;;;;;13.45;3.25;;;32.70;49.30;;;;;;5072329;28;20025;-70
2021/07/10 06:58:36;;;;;;;15.40;3.45;;;32.70;49.10;;;;;;5072938;28;20033;-69
2021/07/10 07:01:01;;;;;;;9.45;3.75;;;32.80;49.10;;;;;;5056157;28;20115;-73
2021/07/10 07:03:27;;;;;;;11.05;3.53;;;32.80;48.70;;;;;;5052836;28;20100;-72
2021/07/10 07:05:53;;;;;;;17.33;3.90;;;32.70;48.90;;;;;;5052818;28;20025;-68
2021/07/10 07:08:19;;;;;;;12.23;3.40;;;32.60;48.70;;;;;;5052552;28;20033;-70
2021/07/10 07:10:44;;;;;;;12.60;3.33;;;32.60;49.00;;;;;;5052619;28;20045;-70
2021/07/10 07:13:10;;;;;;;8.98;3.00;;;32.50;48.60;;;;;;5066115;28;20522;-70
2021/07/10 07:15:37;;;;;;;10.93;2.90;;;32.30;49.30;;;;;;5072678;28;20025;-69
2021/07/10 07:18:03;;;;;;;11.98;3.03;;;32.30;49.40;;;;;;5072066;28;20021;-71
2021/07/10 07:20:29;;;;;;;70.90;7.70;;;32.20;49.50;;;;;;5066060;28;20036;-70
2021/07/10 07:22:56;;;;;;;90.38;9.32;;;32.30;49.30;;;;;;5052475;28;20017;-71
2021/07/10 07:25:22;;;;;;;45.85;5.95;;;32.30;49.70;;;;;;5052618;28;20059;-71
2021/07/10 07:27:50;;;;;;;20.77;3.78;;;32.40;49.40;;;;;;5051122;28;20489;-72
2021/07/10 07:30:19;;;;;;;11.82;2.95;;;32.40;49.80;;;;;;5052959;28;20025;-71
2021/07/10 07:32:46;;;;;;;16.13;3.90;;;32.60;48.90;;;;;;5052759;28;20127;-81
2021/07/10 07:35:14;;;;;;;19.17;6.25;;;32.70;49.00;;;;;;5052733;28;20017;-78
2021/07/10 07:37:40;;;;;;;67.45;10.27;;;32.70;49.20;;;;;;5052738;28;20037;-79
2021/07/10 07:40:08;;;;;;;50.97;7.75;;;32.80;49.00;;;;;;5052665;28;20040;-72
2021/07/10 07:42:34;;;;;;;21.73;5.03;;;32.90;49.00;;;;;;5072428;28;20066;-73
2021/07/10 07:45:03;;;;;;;14.70;4.05;;;32.90;48.90;;;;;;5066389;28;20052;-70
2021/07/10 07:47:28;;;;;;;9.38;2.92;;;32.90;49.30;;;;;;5052250;28;20028;-76
2021/07/10 07:49:54;;;;;;;11.20;2.97;;;32.70;49.00;;;;;;5066051;28;20103;-77
2021/07/10 07:52:20;;;;;;;19.50;3.80;;;32.60;48.70;;;;;;5070124;28;20033;-75
2021/07/10 07:54:45;;;;;;;13.40;3.70;;;32.60;48.90;;;;;;5072331;28;20038;-73
2021/07/10 07:57:11;;;;;;;19.13;4.18;;;32.60;48.90;;;;;;5072042;28;20124;-78
2021/07/10 07:59:37;;;;;;;7.95;3.33;;;32.50;49.10;;;;;;5072094;28;20080;-76
2021/07/10 08:02:03;;;;;;;16.08;4.10;;;32.50;48.40;;;;;;5065429;28;20057;-75
2021/07/10 08:04:29;;;;;;;18.23;3.63;;;32.40;48.50;;;;;;5051552;28;20473;-77
2021/07/10 08:06:54;;;;;;;13.10;3.80;;;32.30;48.80;;;;;;5051957;28;20068;-75
2021/07/10 08:09:20;;;;;;;25.20;6.75;;;32.30;48.50;;;;;;5052486;28;20116;-75
2021/07/10 08:11:46;;;;;;;11.68;3.80;;;32.20;48.70;;;;;;5053371;28;20040;-76
2021/07/10 08:14:13;;;;;;;13.98;3.65;;;32.20;48.60;;;;;;5054275;28;20070;-72
2021/07/10 08:16:40;;;;;;;21.95;4.57;;;32.10;48.40;;;;;;5055648;28;20041;-73
2021/07/10 08:19:11;;;;;;;10.98;3.50;;;32.10;48.50;;;;;;5055359;28;20044;-73
2021/07/10 08:21:37;;;;;;;52.55;6.13;;;31.90;48.90;;;;;;5058876;28;20056;-73
2021/07/10 08:24:03;;;;;;;25.63;4.07;;;31.80;48.70;;;;;;5076361;28;20465;-74
2021/07/10 08:26:29;;;;;;;23.02;4.15;;;31.70;48.20;;;;;;5075316;28;20145;-71
2021/07/10 08:28:55;;;;;;;27.85;3.75;;;31.70;48.70;;;;;;5069277;28;20522;-74
2021/07/10 08:31:22;;;;;;;8.50;3.40;;;31.50;48.90;;;;;;5065813;28;20028;-71
2021/07/10 08:33:48;;;;;;;18.02;3.50;;;31.40;49.50;;;;;;5063275;28;20109;-72
2021/07/10 08:36:14;;;;;;;21.60;4.35;;;31.20;49.20;;;;;;5057179;28;20055;-71
2021/07/10 08:38:39;;;;;;;20.95;3.60;;;31.20;49.50;;;;;;5061158;28;20041;-71
2021/07/10 08:41:07;;;;;;;9.48;3.00;;;31.20;49.30;;;;;;5058913;28;20025;-71
2021/07/10 08:43:33;;;;;;;9.88;2.95;;;31.10;49.60;;;;;;5056112;28;20108;-73
2021/07/10 08:46:02;;;;;;;10.82;3.13;;;31.20;49.30;;;;;;5057848;28;20569;-71
2021/07/10 08:48:28;;;;;;;7.93;2.95;;;31.20;49.40;;;;;;5055263;28;20128;-72
2021/07/10 08:50:56;;;;;;;9.10;2.72;;;31.10;49.10;;;;;;5055346;28;20497;-73
2021/07/10 08:53:22;;;;;;;6.10;2.50;;;31.10;49.20;;;;;;5053781;28;20040;-72
2021/07/10 08:55:50;;;;;;;11.05;2.50;;;31.10;49.10;;;;;;5054853;28;20029;-72
2021/07/10 08:58:19;;;;;;;16.33;3.03;;;31.00;48.50;;;;;;5073537;28;20033;-74
2021/07/10 09:00:46;;;;;;;9.93;2.70;;;31.00;48.40;;;;;;5060835;28;20147;-72
2021/07/10 09:03:12;;;;;;;9.85;2.42;;;30.90;48.30;;;;;;5059776;28;20028;-73
2021/07/10 09:05:39;;;;;;;10.60;3.05;;;30.90;48.60;;;;;;5074445;28;20489;-74
2021/07/10 09:08:17;;;;;;;13.18;3.33;;;30.90;49.30;;;;;;5074616;28;20021;-73
2021/07/10 09:10:47;;;;;;;11.48;2.72;;;30.90;46.80;;;;;;5064456;28;20059;-73
2021/07/10 09:13:15;;;;;;;7.90;2.88;;;30.90;49.30;;;;;;5054970;28;20057;-73
2021/07/10 09:15:41;;;;;;;8.10;2.92;;;30.90;49.10;;;;;;5054338;28;20028;-72
2021/07/10 09:18:12;;;;;;;10.45;3.10;;;30.90;48.20;;;;;;5064171;28;20040;-72
2021/07/10 09:20:40;;;;;;;10.32;3.08;;;30.90;49.20;;;;;;5073784;28;20029;-72
2021/07/10 09:23:29;;;;;;;10.23;3.22;;;30.90;49.40;;;;;;5055719;28;20104;-76
2021/07/10 09:26:22;;;;;;;9.77;3.65;;;30.80;47.30;;;;;;5074007;28;20028;-75
2021/07/10 09:29:28;;;;;;;14.50;3.73;;;30.90;49.50;;;;;;5074017;28;20017;-74
2021/07/10 09:31:57;;;;;;;31.08;7.22;;;31.00;49.20;;;;;;5069946;28;20499;-76
2021/07/10 09:34:30;;;;;;;12.80;3.95;;;30.90;49.60;;;;;;5074391;28;20025;-75
2021/07/10 09:37:01;;;;;;;9.85;3.28;;;30.90;49.30;;;;;;5074208;28;20021;-75
2021/07/10 09:39:30;;;;;;;13.57;3.10;;;31.00;49.40;;;;;;5074175;28;20115;-73
2021/07/10 09:41:58;;;;;;;10.63;2.83;;;31.00;49.20;;;;;;5073295;28;20031;-75
2021/07/10 09:44:24;;;;;;;11.70;2.80;;;30.90;49.40;;;;;;5073864;28;20033;-78
2021/07/10 09:46:50;;;;;;;38.90;5.78;;;30.70;49.10;;;;;;5073887;28;20029;-73
2021/07/10 09:49:30;;;;;;;15.60;3.58;;;30.80;49.20;;;;;;5073962;28;20381;-71
2021/07/10 09:52:10;;;;;;;17.58;3.47;;;30.80;46.90;;;;;;5065260;28;20033;-72
2021/07/10 09:54:40;;;;;;;8.30;2.80;;;30.90;46.70;;;;;;5053603;28;20040;-72
2021/07/10 09:57:17;;;;;;;8.23;2.90;;;30.90;49.10;;;;;;5069950;28;20028;-70
2021/07/10 09:59:46;;;;;;;8.95;3.08;;;30.90;48.90;;;;;;5072691;28;20036;-70
2021/07/10 10:02:15;;;;;;;117.78;13.77;;;30.80;49.00;;;;;;5065943;28;20021;-72
2021/07/10 10:04:41;;;;;;;11.70;3.80;;;30.80;48.90;;;;;;5060398;28;20028;-70
2021/07/10 10:07:15;;;;;;;8.80;3.00;;;30.80;48.70;;;;;;5073876;28;20028;-72
2021/07/10 10:09:41;;;;;;;8.98;2.90;;;30.80;49.00;;;;;;5073664;28;20051;-72
2021/07/10 10:12:12;;;;;;;43.25;6.38;;;30.70;48.80;;;;;;5072070;28;20028;-75
2021/07/10 10:14:43;;;;;;;8.88;3.80;;;30.70;48.90;;;;;;5068935;28;20067;-75
2021/07/10 10:17:09;;;;;;;10.27;3.03;;;30.90;49.20;;;;;;5053649;28;20052;-72
2021/07/10 10:19:36;;;;;;;12.40;3.20;;;30.90;49.30;;;;;;5071003;28;20469;-77
2021/07/10 10:22:05;;;;;;;11.48;3.33;;;30.90;48.90;;;;;;5073458;28;20040;-77
2021/07/10 10:24:31;;;;;;;19.98;3.75;;;31.00;49.00;;;;;;5063483;28;20028;-75
2021/07/10 10:26:58;;;;;;;9.43;3.50;;;31.00;49.40;;;;;;5053692;28;20470;-77
2021/07/10 10:29:26;;;;;;;10.55;2.95;;;31.10;49.30;;;;;;5066407;28;20036;-78
2021/07/10 10:31:52;;;;;;;9.23;3.50;;;31.10;49.20;;;;;;5073529;28;20025;-85
2021/07/10 10:34:19;;;;;;;14.95;3.58;;;31.30;49.30;;;;;;5071138;28;20036;-78
2021/07/10 10:36:48;;;;;;;11.68;2.95;;;31.30;49.20;;;;;;5073789;28;20331;-77
2021/07/10 10:39:28;;;;;;;25.58;4.82;;;31.20;49.20;;;;;;5073367;28;20044;-75
2021/07/10 10:41:58;;;;;;;19.20;4.43;;;31.20;49.10;;;;;;5073591;28;20027;-78
2021/07/10 10:44:32;;;;;;;9.65;3.58;;;31.30;49.30;;;;;;5072764;28;20067;-74
2021/07/10 10:46:58;;;;;;;7.85;2.88;;;31.30;49.30;;;;;;5073566;28;20032;-80
2021/07/10 10:49:42;;;;;;;15.77;3.20;;;31.40;48.90;;;;;;5072382;28;20327;-78
2021/07/10 10:52:27;;;;;;;13.80;4.07;;;31.40;48.90;;;;;;5062561;28;20496;-79
2021/07/10 10:54:56;;;;;;;19.95;3.67;;;31.40;46.70;;;;;;5059680;28;20029;-82
2021/07/10 10:57:35;;;;;;;18.92;3.55;;;31.50;49.10;;;;;;5051151;28;20513;-73
2021/07/10 11:00:09;;;;;;;13.18;3.50;;;31.60;46.70;;;;;;5053120;28;20037;-73
2021/07/10 11:02:38;;;;;;;10.55;3.35;;;31.70;46.90;;;;;;5052733;28;20025;-82
2021/07/10 11:05:12;;;;;;;10.60;3.42;;;31.70;47.00;;;;;;5063094;28;20028;-71
2021/07/10 11:07:40;;;;;;;14.70;3.67;;;31.80;48.30;;;;;;5073049;28;20092;-72
2021/07/10 11:10:07;;;;;;;9.80;3.40;;;31.90;46.90;;;;;;5071526;28;20049;-72
2021/07/10 11:12:52;;;;;;;13.18;3.58;;;32.00;49.10;;;;;;5073153;28;20027;-73
2021/07/10 11:15:34;;;;;;;14.05;4.28;;;32.00;50.00;;;;;;5062983;28;20029;-71
2021/07/10 11:18:01;;;;;;;10.77;3.13;;;32.10;48.50;;;;;;5052868;28;20036;-73
2021/07/10 11:20:46;;;;;;;22.45;3.90;;;32.10;50.90;;;;;;5055620;28;20036;-73
2021/07/10 11:23:29;;;;;;;14.68;4.07;;;32.00;48.70;;;;;;5072890;28;20107;-76
2021/07/10 11:25:58;;;;;;;14.15;3.60;;;32.00;51.20;;;;;;5060799;28;20028;-74
2021/07/10 11:28:38;;;;;;;12.73;3.65;;;32.10;51.60;;;;;;5052482;28;20055;-72
2021/07/10 11:31:08;;;;;;;10.70;3.35;;;32.10;49.20;;;;;;5052790;28;20060;-72
2021/07/10 11:34:02;;;;;;;10.15;3.25;;;32.20;51.70;;;;;;5052533;28;20372;-74
2021/07/10 11:36:48;;;;;;;15.73;3.70;;;32.30;49.20;;;;;;5064941;28;20115;-70
2021/07/10 11:39:32;;;;;;;15.30;4.07;;;32.40;49.20;;;;;;5071781;28;20032;-78
2021/07/10 11:42:22;;;;;;;15.63;3.45;;;32.40;49.50;;;;;;5072544;28;20090;-77
2021/07/10 11:44:54;;;;;;;11.40;3.92;;;32.50;51.30;;;;;;5072133;28;20039;-76
2021/07/10 11:47:34;;;;;;;9.07;3.30;;;32.60;52.10;;;;;;5056191;28;20033;-73
2021/07/10 11:50:04;;;;;;;11.32;3.55;;;32.70;52.20;;;;;;5056073;28;20120;-72
2021/07/10 11:52:29;;;;;;;10.93;3.67;;;32.70;51.20;;;;;;5055620;28;20409;-71
2021/07/10 11:54:57;;;;;;;11.13;4.55;;;32.70;51.80;;;;;;5056997;28;20036;-71
2021/07/10 11:57:26;;;;;;;12.05;3.53;;;32.70;51.10;;;;;;5071175;28;20127;-71
2021/07/10 11:59:53;;;;;;;9.80;3.40;;;32.70;52.50;;;;;;5076042;28;20045;-71
2021/07/10 12:02:19;;;;;;;15.35;3.55;;;32.60;51.60;;;;;;5076116;28;20350;-73
2021/07/10 12:05:03;;;;;;;11.35;4.35;;;32.60;51.40;;;;;;5075528;28;20036;-74
2021/07/10 12:07:29;;;;;;;10.07;3.42;;;32.60;51.20;;;;;;5062338;28;20134;-69
2021/07/10 12:09:58;;;;;;;13.63;3.55;;;32.40;52.20;;;;;;5055664;28;20045;-72
2021/07/10 12:12:25;;;;;;;9.55;3.40;;;32.30;51.80;;;;;;5054670;28;20021;-70
2021/07/10 12:14:56;;;;;;;9.65;3.38;;;32.30;51.00;;;;;;5055795;28;20393;-72
2021/07/10 12:17:23;;;;;;;15.07;3.40;;;32.40;51.60;;;;;;5064653;28;20017;-72
2021/07/10 12:19:50;;;;;;;13.85;3.58;;;32.40;51.30;;;;;;5075607;28;20076;-72
2021/07/10 12:22:21;;;;;;;14.60;3.00;;;32.50;51.80;;;;;;5073477;28;20025;-73
2021/07/10 12:24:48;;;;;;;12.80;3.10;;;32.60;50.80;;;;;;5054658;28;20551;-70
2021/07/10 12:27:19;;;;;;;14.05;3.50;;;32.60;50.30;;;;;;5059809;28;20351;-71
2021/07/10 12:29:55;;;;;;;8.05;2.80;;;32.60;51.20;;;;;;5073805;28;20038;-70
2021/07/10 12:32:21;;;;;;;10.43;2.97;;;32.60;51.30;;;;;;5075788;28;20035;-72
2021/07/10 12:34:52;;;;;;;7.43;2.60;;;32.70;50.90;;;;;;5074431;28;20660;-72
2021/07/10 12:37:26;;;;;;;14.95;2.92;;;32.70;48.40;;;;;;5071444;28;20043;-71
2021/07/10 12:40:02;;;;;;;9.82;2.95;;;32.70;50.20;;;;;;5055166;28;20375;-70
2021/07/10 12:42:28;;;;;;;12.23;2.72;;;32.60;50.40;;;;;;5054408;28;20021;-69